sensor_id;sensor_type;location;lat;lon;timestamp;P1;durP1;ratioP1;P2;durP2;ratioP2
37237;SDS011;23129;49.662;8.448;2022-12-29T00:01:12;2.35;;;1.40;;
37237;SDS011;23129;49.662;8.448;2022-12-29T00:03:40;7.03;;;1.98;;
37237;SDS011;23129;49.662;8.448;2022-12-29T00:06:09;2.55;;;1.73;;
37237;SDS011;23129;49.662;8.448;2022-12-29T00:08:37;1.20;;;1.08;;
37237;SDS011;23129;49.662;8.448;2022-12-29T00:11:09;8.18;;;1.15;;
37237;SDS011;23129;49.662;8.448;2022-12-29T00:13:39;2.72;;;1.60;;
37237;SDS011;23129;49.662;8.448;2022-12-29T00:16:30;2.30;;;1.58;;
37237;SDS011;23129;49.662;8.448;2022-12-29T00:19:00;5.50;;;1.17;;
37237;SDS011;23129;49.662;8.448;2022-12-29T00:21:29;3.08;;;1.23;;
37237;SDS011;23129;49.662;8.448;2022-12-29T00:24:17;4.75;;;1.50;;
37237;SDS011;23129;49.662;8.448;2022-12-29T00:27:19;1.55;;;1.10;;
37237;SDS011;23129;49.662;8.448;2022-12-29T00:30:07;2.63;;;0.80;;
37237;SDS011;23129;49.662;8.448;2022-12-29T00:32:56;2.05;;;0.80;;
37237;SDS011;23129;49.662;8.448;2022-12-29T00:35:45;2.63;;;0.50;;
37237;SDS011;23129;49.662;8.448;2022-12-29T00:38:19;1.60;;;0.65;;
37237;SDS011;23129;49.662;8.448;2022-12-29T00:41:07;0.90;;;0.50;;
37237;SDS011;23129;49.662;8.448;2022-12-29T00:43:53;1.80;;;1.10;;
37237;SDS011;23129;49.662;8.448;2022-12-29T00:46:33;0.75;;;0.57;;
37237;SDS011;23129;49.662;8.448;2022-12-29T00:49:05;1.48;;;0.68;;
37237;SDS011;23129;49.662;8.448;2022-12-29T00:51:51;3.30;;;1.40;;
37237;SDS011;23129;49.662;8.448;2022-12-29T00:54:21;5.90;;;0.60;;
37237;SDS011;23129;49.662;8.448;2022-12-29T00:56:50;2.47;;;1.10;;
37237;SDS011;23129;49.662;8.448;2022-12-29T00:59:19;1.65;;;1.00;;
37237;SDS011;23129;49.662;8.448;2022-12-29T01:01:50;0.85;;;0.35;;
37237;SDS011;23129;49.662;8.448;2022-12-29T01:04:22;2.83;;;0.47;;
37237;SDS011;23129;49.662;8.448;2022-12-29T01:06:53;3.28;;;0.70;;
37237;SDS011;23129;49.662;8.448;2022-12-29T01:09:21;4.13;;;0.82;;
37237;SDS011;23129;49.662;8.448;2022-12-29T01:12:08;0.65;;;0.55;;
37237;SDS011;23129;49.662;8.448;2022-12-29T01:14:38;0.93;;;0.40;;
37237;SDS011;23129;49.662;8.448;2022-12-29T01:17:06;2.05;;;0.50;;
37237;SDS011;23129;49.662;8.448;2022-12-29T01:19:37;0.82;;;0.50;;
37237;SDS011;23129;49.662;8.448;2022-12-29T01:22:05;4.25;;;0.80;;
37237;SDS011;23129;49.662;8.448;2022-12-29T01:24:34;0.60;;;0.60;;
37237;SDS011;23129;49.662;8.448;2022-12-29T01:27:02;2.40;;;0.55;;
37237;SDS011;23129;49.662;8.448;2022-12-29T01:29:31;1.48;;;0.45;;
37237;SDS011;23129;49.662;8.448;2022-12-29T01:31:59;0.85;;;0.40;;
37237;SDS011;23129;49.662;8.448;2022-12-29T01:34:28;3.13;;;0.30;;
37237;SDS011;23129;49.662;8.448;2022-12-29T01:36:58;3.35;;;0.47;;
37237;SDS011;23129;49.662;8.448;2022-12-29T01:39:26;0.98;;;0.40;;
37237;SDS011;23129;49.662;8.448;2022-12-29T01:41:54;1.38;;;0.40;;
37237;SDS011;23129;49.662;8.448;2022-12-29T01:44:41;0.38;;;0.28;;
37237;SDS011;23129;49.662;8.448;2022-12-29T01:47:23;1.92;;;0.52;;
37237;SDS011;23129;49.662;8.448;2022-12-29T01:49:59;0.40;;;0.40;;
37237;SDS011;23129;49.662;8.448;2022-12-29T01:52:35;2.83;;;0.30;;
37237;SDS011;23129;49.662;8.448;2022-12-29T01:55:08;2.85;;;0.30;;
37237;SDS011;23129;49.662;8.448;2022-12-29T01:57:40;1.02;;;0.50;;
37237;SDS011;23129;49.662;8.448;2022-12-29T02:00:13;0.15;;;0.15;;
37237;SDS011;23129;49.662;8.448;2022-12-29T02:02:46;1.02;;;0.30;;
37237;SDS011;23129;49.662;8.448;2022-12-29T02:05:21;1.52;;;0.30;;
37237;SDS011;23129;49.662;8.448;2022-12-29T02:07:56;2.60;;;0.82;;
37237;SDS011;23129;49.662;8.448;2022-12-29T02:10:25;0.68;;;0.20;;
37237;SDS011;23129;49.662;8.448;2022-12-29T02:12:57;0.65;;;0.35;;
37237;SDS011;23129;49.662;8.448;2022-12-29T02:15:35;1.13;;;0.30;;
37237;SDS011;23129;49.662;8.448;2022-12-29T02:18:18;4.20;;;0.57;;
37237;SDS011;23129;49.662;8.448;2022-12-29T02:21:06;0.57;;;0.57;;
37237;SDS011;23129;49.662;8.448;2022-12-29T02:24:18;1.25;;;0.47;;
37237;SDS011;23129;49.662;8.448;2022-12-29T02:30:37;0.80;;;0.40;;
37237;SDS011;23129;49.662;8.448;2022-12-29T02:33:13;1.63;;;0.47;;
37237;SDS011;23129;49.662;8.448;2022-12-29T02:35:56;0.50;;;0.40;;
37237;SDS011;23129;49.662;8.448;2022-12-29T02:38:40;1.17;;;0.50;;
37237;SDS011;23129;49.662;8.448;2022-12-29T02:41:19;0.50;;;0.40;;
37237;SDS011;23129;49.662;8.448;2022-12-29T02:43:56;0.95;;;0.50;;
37237;SDS011;23129;49.662;8.448;2022-12-29T02:46:35;0.60;;;0.60;;
37237;SDS011;23129;49.662;8.448;2022-12-29T02:49:10;0.95;;;0.60;;
37237;SDS011;23129;49.662;8.448;2022-12-29T02:51:45;1.05;;;0.47;;
37237;SDS011;23129;49.662;8.448;2022-12-29T02:54:18;1.30;;;0.60;;
37237;SDS011;23129;49.662;8.448;2022-12-29T02:57:08;0.40;;;0.40;;
37237;SDS011;23129;49.662;8.448;2022-12-29T02:59:57;0.73;;;0.55;;
37237;SDS011;23129;49.662;8.448;2022-12-29T03:05:41;0.60;;;0.45;;
37237;SDS011;23129;49.662;8.448;2022-12-29T03:08:27;1.58;;;0.50;;
37237;SDS011;23129;49.662;8.448;2022-12-29T03:11:07;1.15;;;0.68;;
37237;SDS011;23129;49.662;8.448;2022-12-29T03:13:59;4.32;;;1.05;;
37237;SDS011;23129;49.662;8.448;2022-12-29T03:16:53;0.88;;;0.70;;
37237;SDS011;23129;49.662;8.448;2022-12-29T03:19:30;1.95;;;0.73;;
37237;SDS011;23129;49.662;8.448;2022-12-29T03:22:03;1.90;;;0.57;;
37237;SDS011;23129;49.662;8.448;2022-12-29T03:24:58;2.47;;;0.80;;
37237;SDS011;23129;49.662;8.448;2022-12-29T03:27:32;0.77;;;0.77;;
37237;SDS011;23129;49.662;8.448;2022-12-29T03:30:06;0.65;;;0.65;;
37237;SDS011;23129;49.662;8.448;2022-12-29T03:32:38;0.63;;;0.43;;
37237;SDS011;23129;49.662;8.448;2022-12-29T03:35:13;2.08;;;0.93;;
37237;SDS011;23129;49.662;8.448;2022-12-29T03:37:49;0.50;;;0.50;;
37237;SDS011;23129;49.662;8.448;2022-12-29T03:40:22;3.17;;;0.70;;
37237;SDS011;23129;49.662;8.448;2022-12-29T03:42:54;3.17;;;0.75;;
37237;SDS011;23129;49.662;8.448;2022-12-29T03:45:23;1.13;;;0.60;;
37237;SDS011;23129;49.662;8.448;2022-12-29T03:47:52;2.67;;;0.93;;
37237;SDS011;23129;49.662;8.448;2022-12-29T03:50:23;5.22;;;1.10;;
37237;SDS011;23129;49.662;8.448;2022-12-29T03:52:51;5.07;;;1.10;;
37237;SDS011;23129;49.662;8.448;2022-12-29T03:55:21;2.75;;;0.90;;
37237;SDS011;23129;49.662;8.448;2022-12-29T03:57:51;6.05;;;0.98;;
37237;SDS011;23129;49.662;8.448;2022-12-29T04:00:30;5.57;;;0.80;;
37237;SDS011;23129;49.662;8.448;2022-12-29T04:02:58;0.88;;;0.80;;
37237;SDS011;23129;49.662;8.448;2022-12-29T04:05:28;0.60;;;0.60;;
37237;SDS011;23129;49.662;8.448;2022-12-29T04:07:58;5.10;;;2.35;;
37237;SDS011;23129;49.662;8.448;2022-12-29T04:10:26;6.10;;;1.13;;
37237;SDS011;23129;49.662;8.448;2022-12-29T04:12:58;1.98;;;1.15;;
37237;SDS011;23129;49.662;8.448;2022-12-29T04:15:26;1.95;;;0.65;;
37237;SDS011;23129;49.662;8.448;2022-12-29T04:17:56;5.53;;;0.90;;
37237;SDS011;23129;49.662;8.448;2022-12-29T04:20:25;3.88;;;1.20;;
37237;SDS011;23129;49.662;8.448;2022-12-29T04:23:13;5.30;;;0.77;;
37237;SDS011;23129;49.662;8.448;2022-12-29T04:25:44;0.82;;;0.60;;
37237;SDS011;23129;49.662;8.448;2022-12-29T04:28:14;7.10;;;0.98;;
37237;SDS011;23129;49.662;8.448;2022-12-29T04:30:52;1.95;;;0.60;;
37237;SDS011;23129;49.662;8.448;2022-12-29T04:33:35;1.08;;;0.80;;
37237;SDS011;23129;49.662;8.448;2022-12-29T04:36:05;2.85;;;1.15;;
37237;SDS011;23129;49.662;8.448;2022-12-29T04:38:36;4.13;;;0.80;;
37237;SDS011;23129;49.662;8.448;2022-12-29T04:41:05;2.13;;;0.65;;
37237;SDS011;23129;49.662;8.448;2022-12-29T04:43:36;1.02;;;0.70;;
37237;SDS011;23129;49.662;8.448;2022-12-29T04:46:30;1.98;;;0.77;;
37237;SDS011;23129;49.662;8.448;2022-12-29T04:49:03;0.85;;;0.57;;
37237;SDS011;23129;49.662;8.448;2022-12-29T04:51:49;0.40;;;0.40;;
37237;SDS011;23129;49.662;8.448;2022-12-29T04:54:20;0.70;;;0.47;;
37237;SDS011;23129;49.662;8.448;2022-12-29T04:56:55;0.85;;;0.85;;
37237;SDS011;23129;49.662;8.448;2022-12-29T04:59:23;5.35;;;1.02;;
37237;SDS011;23129;49.662;8.448;2022-12-29T05:01:55;0.77;;;0.75;;
37237;SDS011;23129;49.662;8.448;2022-12-29T05:04:24;1.83;;;0.77;;
37237;SDS011;23129;49.662;8.448;2022-12-29T05:06:53;1.85;;;0.90;;
37237;SDS011;23129;49.662;8.448;2022-12-29T05:09:23;1.40;;;0.88;;
37237;SDS011;23129;49.662;8.448;2022-12-29T05:11:52;0.98;;;0.60;;
37237;SDS011;23129;49.662;8.448;2022-12-29T05:14:20;0.85;;;0.50;;
37237;SDS011;23129;49.662;8.448;2022-12-29T05:16:49;3.05;;;1.02;;
37237;SDS011;23129;49.662;8.448;2022-12-29T05:19:18;2.47;;;0.80;;
37237;SDS011;23129;49.662;8.448;2022-12-29T05:21:47;1.55;;;0.73;;
37237;SDS011;23129;49.662;8.448;2022-12-29T05:24:15;1.50;;;0.88;;
37237;SDS011;23129;49.662;8.448;2022-12-29T05:26:45;3.72;;;1.05;;
37237;SDS011;23129;49.662;8.448;2022-12-29T05:29:34;1.13;;;0.50;;
37237;SDS011;23129;49.662;8.448;2022-12-29T05:32:03;3.28;;;0.63;;
37237;SDS011;23129;49.662;8.448;2022-12-29T05:34:31;3.28;;;0.60;;
37237;SDS011;23129;49.662;8.448;2022-12-29T05:37:00;1.20;;;0.95;;
37237;SDS011;23129;49.662;8.448;2022-12-29T05:39:29;0.70;;;0.68;;
37237;SDS011;23129;49.662;8.448;2022-12-29T05:42:02;3.15;;;0.98;;
37237;SDS011;23129;49.662;8.448;2022-12-29T05:44:51;1.23;;;0.60;;
37237;SDS011;23129;49.662;8.448;2022-12-29T05:47:34;2.20;;;1.10;;
37237;SDS011;23129;49.662;8.448;2022-12-29T05:50:09;1.75;;;1.15;;
37237;SDS011;23129;49.662;8.448;2022-12-29T05:52:56;3.45;;;0.80;;
37237;SDS011;23129;49.662;8.448;2022-12-29T05:55:25;1.38;;;0.65;;
37237;SDS011;23129;49.662;8.448;2022-12-29T05:57:54;1.58;;;0.70;;
37237;SDS011;23129;49.662;8.448;2022-12-29T06:00:23;2.10;;;0.88;;
37237;SDS011;23129;49.662;8.448;2022-12-29T06:02:52;1.40;;;0.63;;
37237;SDS011;23129;49.662;8.448;2022-12-29T06:05:21;2.72;;;0.77;;
37237;SDS011;23129;49.662;8.448;2022-12-29T06:07:49;2.67;;;0.90;;
37237;SDS011;23129;49.662;8.448;2022-12-29T06:10:18;5.28;;;0.95;;
37237;SDS011;23129;49.662;8.448;2022-12-29T06:12:57;2.95;;;1.02;;
37237;SDS011;23129;49.662;8.448;2022-12-29T06:15:26;4.47;;;0.70;;
37237;SDS011;23129;49.662;8.448;2022-12-29T06:17:55;5.03;;;0.93;;
37237;SDS011;23129;49.662;8.448;2022-12-29T06:20:24;3.15;;;0.80;;
37237;SDS011;23129;49.662;8.448;2022-12-29T06:22:52;1.08;;;0.80;;
37237;SDS011;23129;49.662;8.448;2022-12-29T06:25:22;1.25;;;0.70;;
37237;SDS011;23129;49.662;8.448;2022-12-29T06:27:51;1.02;;;0.60;;
37237;SDS011;23129;49.662;8.448;2022-12-29T06:30:21;2.47;;;0.73;;
37237;SDS011;23129;49.662;8.448;2022-12-29T06:32:50;2.85;;;0.95;;
37237;SDS011;23129;49.662;8.448;2022-12-29T06:35:18;5.00;;;1.42;;
37237;SDS011;23129;49.662;8.448;2022-12-29T06:37:50;3.75;;;0.90;;
37237;SDS011;23129;49.662;8.448;2022-12-29T06:40:19;2.05;;;1.00;;
37237;SDS011;23129;49.662;8.448;2022-12-29T06:43:14;3.83;;;1.30;;
37237;SDS011;23129;49.662;8.448;2022-12-29T06:46:08;5.60;;;1.35;;
37237;SDS011;23129;49.662;8.448;2022-12-29T06:48:36;5.55;;;1.05;;
37237;SDS011;23129;49.662;8.448;2022-12-29T06:51:05;3.35;;;1.15;;
37237;SDS011;23129;49.662;8.448;2022-12-29T06:53:33;4.28;;;1.23;;
37237;SDS011;23129;49.662;8.448;2022-12-29T06:56:02;4.28;;;1.55;;
37237;SDS011;23129;49.662;8.448;2022-12-29T06:58:31;6.78;;;1.15;;
37237;SDS011;23129;49.662;8.448;2022-12-29T07:00:59;1.02;;;1.00;;
37237;SDS011;23129;49.662;8.448;2022-12-29T07:03:29;1.52;;;1.27;;
37237;SDS011;23129;49.662;8.448;2022-12-29T07:05:57;4.10;;;1.00;;
37237;SDS011;23129;49.662;8.448;2022-12-29T07:08:26;1.23;;;0.93;;
37237;SDS011;23129;49.662;8.448;2022-12-29T07:10:54;2.05;;;1.08;;
37237;SDS011;23129;49.662;8.448;2022-12-29T07:13:22;6.18;;;1.40;;
37237;SDS011;23129;49.662;8.448;2022-12-29T07:15:51;4.88;;;1.17;;
37237;SDS011;23129;49.662;8.448;2022-12-29T07:18:19;2.45;;;1.30;;
37237;SDS011;23129;49.662;8.448;2022-12-29T07:20:49;3.25;;;1.00;;
37237;SDS011;23129;49.662;8.448;2022-12-29T07:23:18;3.67;;;0.80;;
37237;SDS011;23129;49.662;8.448;2022-12-29T07:25:46;2.63;;;0.80;;
37237;SDS011;23129;49.662;8.448;2022-12-29T07:28:15;8.57;;;1.70;;
37237;SDS011;23129;49.662;8.448;2022-12-29T07:30:45;2.38;;;0.85;;
37237;SDS011;23129;49.662;8.448;2022-12-29T07:33:13;2.47;;;1.08;;
37237;SDS011;23129;49.662;8.448;2022-12-29T07:35:42;5.55;;;1.10;;
37237;SDS011;23129;49.662;8.448;2022-12-29T07:38:12;1.13;;;0.88;;
37237;SDS011;23129;49.662;8.448;2022-12-29T07:40:41;2.85;;;0.70;;
37237;SDS011;23129;49.662;8.448;2022-12-29T07:43:09;1.50;;;1.10;;
37237;SDS011;23129;49.662;8.448;2022-12-29T07:45:44;1.10;;;0.80;;
37237;SDS011;23129;49.662;8.448;2022-12-29T07:48:15;4.93;;;1.63;;
37237;SDS011;23129;49.662;8.448;2022-12-29T07:50:44;4.57;;;1.38;;
37237;SDS011;23129;49.662;8.448;2022-12-29T07:53:14;1.98;;;1.02;;
37237;SDS011;23129;49.662;8.448;2022-12-29T07:55:42;7.85;;;1.00;;
37237;SDS011;23129;49.662;8.448;2022-12-29T07:58:11;5.18;;;1.10;;
37237;SDS011;23129;49.662;8.448;2022-12-29T08:00:40;5.38;;;1.08;;
37237;SDS011;23129;49.662;8.448;2022-12-29T08:03:08;2.63;;;1.15;;
37237;SDS011;23129;49.662;8.448;2022-12-29T08:05:37;4.78;;;1.00;;
37237;SDS011;23129;49.662;8.448;2022-12-29T08:08:05;2.30;;;1.20;;
37237;SDS011;23129;49.662;8.448;2022-12-29T08:10:35;1.08;;;0.80;;
37237;SDS011;23129;49.662;8.448;2022-12-29T08:13:03;3.95;;;1.17;;
37237;SDS011;23129;49.662;8.448;2022-12-29T08:15:32;1.75;;;1.00;;
37237;SDS011;23129;49.662;8.448;2022-12-29T08:18:00;3.55;;;1.33;;
37237;SDS011;23129;49.662;8.448;2022-12-29T08:20:30;1.55;;;0.98;;
37237;SDS011;23129;49.662;8.448;2022-12-29T08:22:59;2.75;;;1.40;;
37237;SDS011;23129;49.662;8.448;2022-12-29T08:25:28;5.15;;;1.60;;
37237;SDS011;23129;49.662;8.448;2022-12-29T08:27:57;4.70;;;1.48;;
37237;SDS011;23129;49.662;8.448;2022-12-29T08:30:26;4.72;;;1.70;;
37237;SDS011;23129;49.662;8.448;2022-12-29T08:32:54;3.50;;;1.40;;
37237;SDS011;23129;49.662;8.448;2022-12-29T08:35:23;5.38;;;1.52;;
37237;SDS011;23129;49.662;8.448;2022-12-29T08:37:52;4.55;;;1.40;;
37237;SDS011;23129;49.662;8.448;2022-12-29T08:40:20;3.70;;;1.13;;
37237;SDS011;23129;49.662;8.448;2022-12-29T08:42:49;1.67;;;1.13;;
37237;SDS011;23129;49.662;8.448;2022-12-29T08:45:19;1.83;;;1.38;;
37237;SDS011;23129;49.662;8.448;2022-12-29T08:47:47;4.57;;;1.20;;
37237;SDS011;23129;49.662;8.448;2022-12-29T08:50:16;7.20;;;1.05;;
37237;SDS011;23129;49.662;8.448;2022-12-29T08:52:44;5.13;;;1.35;;
37237;SDS011;23129;49.662;8.448;2022-12-29T08:55:13;1.42;;;1.20;;
37237;SDS011;23129;49.662;8.448;2022-12-29T08:57:42;3.55;;;1.02;;
37237;SDS011;23129;49.662;8.448;2022-12-29T09:00:15;5.63;;;1.38;;
37237;SDS011;23129;49.662;8.448;2022-12-29T09:02:45;5.30;;;1.65;;
37237;SDS011;23129;49.662;8.448;2022-12-29T09:05:14;3.78;;;1.30;;
37237;SDS011;23129;49.662;8.448;2022-12-29T09:07:43;5.63;;;1.45;;
37237;SDS011;23129;49.662;8.448;2022-12-29T09:10:11;1.70;;;1.20;;
37237;SDS011;23129;49.662;8.448;2022-12-29T09:12:40;3.38;;;1.10;;
37237;SDS011;23129;49.662;8.448;2022-12-29T09:15:08;6.07;;;1.50;;
37237;SDS011;23129;49.662;8.448;2022-12-29T09:17:38;5.57;;;1.20;;
37237;SDS011;23129;49.662;8.448;2022-12-29T09:20:12;4.32;;;1.00;;
37237;SDS011;23129;49.662;8.448;2022-12-29T09:22:42;5.22;;;1.00;;
37237;SDS011;23129;49.662;8.448;2022-12-29T09:25:12;2.67;;;1.10;;
37237;SDS011;23129;49.662;8.448;2022-12-29T09:27:41;2.40;;;1.30;;
37237;SDS011;23129;49.662;8.448;2022-12-29T09:30:11;5.18;;;1.23;;
37237;SDS011;23129;49.662;8.448;2022-12-29T09:32:41;2.38;;;1.40;;
37237;SDS011;23129;49.662;8.448;2022-12-29T09:35:14;1.83;;;1.10;;
37237;SDS011;23129;49.662;8.448;2022-12-29T09:37:43;4.70;;;1.23;;
37237;SDS011;23129;49.662;8.448;2022-12-29T09:40:17;4.13;;;1.02;;
37237;SDS011;23129;49.662;8.448;2022-12-29T09:43:03;1.40;;;1.05;;
37237;SDS011;23129;49.662;8.448;2022-12-29T09:46:01;2.08;;;1.05;;
37237;SDS011;23129;49.662;8.448;2022-12-29T09:48:41;3.58;;;1.23;;
37237;SDS011;23129;49.662;8.448;2022-12-29T09:51:18;2.47;;;1.30;;
37237;SDS011;23129;49.662;8.448;2022-12-29T09:53:52;1.40;;;1.25;;
37237;SDS011;23129;49.662;8.448;2022-12-29T09:56:24;2.15;;;1.10;;
37237;SDS011;23129;49.662;8.448;2022-12-29T09:58:55;3.20;;;1.15;;
37237;SDS011;23129;49.662;8.448;2022-12-29T10:01:28;3.22;;;1.10;;
37237;SDS011;23129;49.662;8.448;2022-12-29T10:04:01;2.17;;;1.02;;
37237;SDS011;23129;49.662;8.448;2022-12-29T10:06:35;1.27;;;1.15;;
37237;SDS011;23129;49.662;8.448;2022-12-29T10:09:33;4.45;;;1.13;;
37237;SDS011;23129;49.662;8.448;2022-12-29T10:12:11;1.88;;;0.68;;
37237;SDS011;23129;49.662;8.448;2022-12-29T10:14:56;8.70;;;1.42;;
37237;SDS011;23129;49.662;8.448;2022-12-29T10:17:39;1.05;;;0.82;;
37237;SDS011;23129;49.662;8.448;2022-12-29T10:20:25;2.70;;;1.00;;
37237;SDS011;23129;49.662;8.448;2022-12-29T10:23:09;1.52;;;0.98;;
37237;SDS011;23129;49.662;8.448;2022-12-29T10:25:49;1.73;;;1.35;;
37237;SDS011;23129;49.662;8.448;2022-12-29T10:28:21;1.00;;;0.95;;
37237;SDS011;23129;49.662;8.448;2022-12-29T10:30:51;6.32;;;0.90;;
37237;SDS011;23129;49.662;8.448;2022-12-29T10:33:34;3.78;;;1.52;;
37237;SDS011;23129;49.662;8.448;2022-12-29T10:36:10;2.25;;;1.10;;
37237;SDS011;23129;49.662;8.448;2022-12-29T10:38:47;3.75;;;0.95;;
37237;SDS011;23129;49.662;8.448;2022-12-29T10:41:27;1.35;;;0.75;;
37237;SDS011;23129;49.662;8.448;2022-12-29T10:44:04;1.80;;;1.33;;
37237;SDS011;23129;49.662;8.448;2022-12-29T10:46:36;1.08;;;1.00;;
37237;SDS011;23129;49.662;8.448;2022-12-29T10:49:05;6.68;;;1.40;;
37237;SDS011;23129;49.662;8.448;2022-12-29T10:51:47;2.92;;;1.25;;
37237;SDS011;23129;49.662;8.448;2022-12-29T10:54:21;4.32;;;1.45;;
37237;SDS011;23129;49.662;8.448;2022-12-29T10:56:54;2.20;;;1.10;;
37237;SDS011;23129;49.662;8.448;2022-12-29T10:59:29;2.22;;;1.23;;
37237;SDS011;23129;49.662;8.448;2022-12-29T11:02:00;4.47;;;1.20;;
37237;SDS011;23129;49.662;8.448;2022-12-29T11:04:52;1.65;;;0.70;;
37237;SDS011;23129;49.662;8.448;2022-12-29T11:07:29;2.67;;;0.93;;
37237;SDS011;23129;49.662;8.448;2022-12-29T11:12:55;3.53;;;1.00;;
37237;SDS011;23129;49.662;8.448;2022-12-29T11:15:25;2.05;;;0.80;;
37237;SDS011;23129;49.662;8.448;2022-12-29T11:17:56;2.05;;;0.80;;
37237;SDS011;23129;49.662;8.448;2022-12-29T11:20:30;5.30;;;1.40;;
37237;SDS011;23129;49.662;8.448;2022-12-29T11:23:01;4.55;;;1.85;;
37237;SDS011;23129;49.662;8.448;2022-12-29T11:25:32;2.03;;;1.10;;
37237;SDS011;23129;49.662;8.448;2022-12-29T11:28:01;2.53;;;1.48;;
37237;SDS011;23129;49.662;8.448;2022-12-29T11:30:41;7.28;;;1.73;;
37237;SDS011;23129;49.662;8.448;2022-12-29T11:33:10;8.70;;;2.10;;
37237;SDS011;23129;49.662;8.448;2022-12-29T11:35:40;5.40;;;2.13;;
37237;SDS011;23129;49.662;8.448;2022-12-29T11:38:16;9.30;;;2.13;;
37237;SDS011;23129;49.662;8.448;2022-12-29T11:40:50;3.83;;;1.60;;
37237;SDS011;23129;49.662;8.448;2022-12-29T11:43:20;4.40;;;2.15;;
37237;SDS011;23129;49.662;8.448;2022-12-29T11:45:54;1.48;;;1.30;;
37237;SDS011;23129;49.662;8.448;2022-12-29T11:48:23;2.70;;;1.20;;
37237;SDS011;23129;49.662;8.448;2022-12-29T11:50:57;8.85;;;1.25;;
37237;SDS011;23129;49.662;8.448;2022-12-29T11:53:27;1.55;;;0.68;;
37237;SDS011;23129;49.662;8.448;2022-12-29T11:56:06;1.58;;;1.00;;
37237;SDS011;23129;49.662;8.448;2022-12-29T11:58:38;0.98;;;0.77;;
37237;SDS011;23129;49.662;8.448;2022-12-29T12:01:07;5.50;;;0.95;;
37237;SDS011;23129;49.662;8.448;2022-12-29T12:03:45;1.17;;;0.75;;
37237;SDS011;23129;49.662;8.448;2022-12-29T12:06:20;2.78;;;1.30;;
37237;SDS011;23129;49.662;8.448;2022-12-29T12:08:52;4.82;;;1.30;;
37237;SDS011;23129;49.662;8.448;2022-12-29T12:11:26;3.13;;;1.27;;
37237;SDS011;23129;49.662;8.448;2022-12-29T12:14:04;3.97;;;1.10;;
37237;SDS011;23129;49.662;8.448;2022-12-29T12:17:06;1.33;;;1.17;;
37237;SDS011;23129;49.662;8.448;2022-12-29T12:19:40;1.07;;;1.07;;
37237;SDS011;23129;49.662;8.448;2022-12-29T12:22:15;1.95;;;1.00;;
37237;SDS011;23129;49.662;8.448;2022-12-29T12:24:52;4.05;;;0.80;;
37237;SDS011;23129;49.662;8.448;2022-12-29T12:27:28;5.43;;;0.95;;
37237;SDS011;23129;49.662;8.448;2022-12-29T12:30:10;4.40;;;1.50;;
37237;SDS011;23129;49.662;8.448;2022-12-29T12:32:44;4.75;;;1.23;;
37237;SDS011;23129;49.662;8.448;2022-12-29T12:35:24;1.63;;;1.02;;
37237;SDS011;23129;49.662;8.448;2022-12-29T12:38:06;4.60;;;1.00;;
37237;SDS011;23129;49.662;8.448;2022-12-29T12:40:54;4.45;;;0.90;;
37237;SDS011;23129;49.662;8.448;2022-12-29T12:46:51;6.75;;;1.35;;
37237;SDS011;23129;49.662;8.448;2022-12-29T12:52:45;3.17;;;1.17;;
37237;SDS011;23129;49.662;8.448;2022-12-29T12:55:33;1.13;;;0.70;;
37237;SDS011;23129;49.662;8.448;2022-12-29T12:58:21;1.33;;;1.00;;
37237;SDS011;23129;49.662;8.448;2022-12-29T13:01:05;3.30;;;1.02;;
37237;SDS011;23129;49.662;8.448;2022-12-29T13:03:49;2.47;;;0.70;;
37237;SDS011;23129;49.662;8.448;2022-12-29T13:06:33;2.38;;;1.05;;
37237;SDS011;23129;49.662;8.448;2022-12-29T13:09:16;1.48;;;0.75;;
37237;SDS011;23129;49.662;8.448;2022-12-29T13:12:08;5.00;;;1.02;;
37237;SDS011;23129;49.662;8.448;2022-12-29T13:14:51;2.47;;;0.88;;
37237;SDS011;23129;49.662;8.448;2022-12-29T13:17:35;5.22;;;1.38;;
37237;SDS011;23129;49.662;8.448;2022-12-29T13:20:18;3.38;;;0.80;;
37237;SDS011;23129;49.662;8.448;2022-12-29T13:22:57;5.03;;;0.75;;
37237;SDS011;23129;49.662;8.448;2022-12-29T13:25:37;5.20;;;1.42;;
37237;SDS011;23129;49.662;8.448;2022-12-29T13:28:14;1.88;;;0.75;;
37237;SDS011;23129;49.662;8.448;2022-12-29T13:30:53;4.38;;;0.68;;
37237;SDS011;23129;49.662;8.448;2022-12-29T13:33:32;0.85;;;0.70;;
37237;SDS011;23129;49.662;8.448;2022-12-29T13:36:19;1.67;;;0.60;;
37237;SDS011;23129;49.662;8.448;2022-12-29T13:38:56;1.88;;;0.50;;
37237;SDS011;23129;49.662;8.448;2022-12-29T13:41:33;1.65;;;0.55;;
37237;SDS011;23129;49.662;8.448;2022-12-29T13:44:09;4.55;;;0.43;;
37237;SDS011;23129;49.662;8.448;2022-12-29T13:46:43;1.38;;;0.60;;
37237;SDS011;23129;49.662;8.448;2022-12-29T13:49:16;1.50;;;0.50;;
37237;SDS011;23129;49.662;8.448;2022-12-29T13:51:47;1.58;;;0.38;;
37237;SDS011;23129;49.662;8.448;2022-12-29T13:54:23;3.28;;;0.65;;
37237;SDS011;23129;49.662;8.448;2022-12-29T13:57:08;6.32;;;1.77;;
37237;SDS011;23129;49.662;8.448;2022-12-29T13:59:54;2.60;;;0.85;;
37237;SDS011;23129;49.662;8.448;2022-12-29T14:02:37;1.33;;;0.47;;
37237;SDS011;23129;49.662;8.448;2022-12-29T14:05:28;0.25;;;0.10;;
37237;SDS011;23129;49.662;8.448;2022-12-29T14:07:59;2.70;;;0.60;;
37237;SDS011;23129;49.662;8.448;2022-12-29T14:10:31;1.25;;;0.30;;
37237;SDS011;23129;49.662;8.448;2022-12-29T14:13:03;1.13;;;0.43;;
37237;SDS011;23129;49.662;8.448;2022-12-29T14:18:11;3.50;;;0.85;;
37237;SDS011;23129;49.662;8.448;2022-12-29T14:20:51;1.13;;;0.50;;
37237;SDS011;23129;49.662;8.448;2022-12-29T14:23:27;0.73;;;0.45;;
37237;SDS011;23129;49.662;8.448;2022-12-29T14:26:14;4.45;;;1.10;;
37237;SDS011;23129;49.662;8.448;2022-12-29T14:28:46;4.15;;;0.73;;
37237;SDS011;23129;49.662;8.448;2022-12-29T14:31:34;2.17;;;0.65;;
37237;SDS011;23129;49.662;8.448;2022-12-29T14:36:59;7.10;;;0.85;;
37237;SDS011;23129;49.662;8.448;2022-12-29T14:39:33;2.45;;;0.70;;
37237;SDS011;23129;49.662;8.448;2022-12-29T14:42:05;1.35;;;0.60;;
37237;SDS011;23129;49.662;8.448;2022-12-29T14:44:47;2.83;;;0.35;;
37237;SDS011;23129;49.662;8.448;2022-12-29T14:47:18;5.47;;;1.08;;
37237;SDS011;23129;49.662;8.448;2022-12-29T14:49:53;0.60;;;0.20;;
37237;SDS011;23129;49.662;8.448;2022-12-29T14:52:24;0.20;;;0.20;;
37237;SDS011;23129;49.662;8.448;2022-12-29T14:54:56;1.35;;;0.52;;
37237;SDS011;23129;49.662;8.448;2022-12-29T14:57:28;3.83;;;0.40;;
37237;SDS011;23129;49.662;8.448;2022-12-29T15:00:05;0.55;;;0.40;;
37237;SDS011;23129;49.662;8.448;2022-12-29T15:02:44;3.63;;;0.55;;
37237;SDS011;23129;49.662;8.448;2022-12-29T15:05:23;3.58;;;0.60;;
37237;SDS011;23129;49.662;8.448;2022-12-29T15:07:59;4.05;;;0.60;;
37237;SDS011;23129;49.662;8.448;2022-12-29T15:10:32;5.93;;;0.80;;
37237;SDS011;23129;49.662;8.448;2022-12-29T15:13:13;1.45;;;0.50;;
37237;SDS011;23129;49.662;8.448;2022-12-29T15:15:45;3.92;;;0.63;;
37237;SDS011;23129;49.662;8.448;2022-12-29T15:18:14;1.73;;;0.32;;
37237;SDS011;23129;49.662;8.448;2022-12-29T15:20:51;7.35;;;0.47;;
37237;SDS011;23129;49.662;8.448;2022-12-29T15:23:25;1.23;;;0.35;;
37237;SDS011;23129;49.662;8.448;2022-12-29T15:25:56;6.22;;;0.43;;
37237;SDS011;23129;49.662;8.448;2022-12-29T15:28:27;2.80;;;0.65;;
37237;SDS011;23129;49.662;8.448;2022-12-29T15:31:06;1.02;;;0.35;;
37237;SDS011;23129;49.662;8.448;2022-12-29T15:33:39;0.50;;;0.25;;
37237;SDS011;23129;49.662;8.448;2022-12-29T15:36:12;4.22;;;0.50;;
37237;SDS011;23129;49.662;8.448;2022-12-29T15:38:47;0.77;;;0.30;;
37237;SDS011;23129;49.662;8.448;2022-12-29T15:41:24;2.53;;;0.65;;
37237;SDS011;23129;49.662;8.448;2022-12-29T15:44:01;2.53;;;0.50;;
37237;SDS011;23129;49.662;8.448;2022-12-29T15:46:42;5.28;;;0.90;;
37237;SDS011;23129;49.662;8.448;2022-12-29T15:49:11;1.73;;;0.40;;
37237;SDS011;23129;49.662;8.448;2022-12-29T15:51:43;2.88;;;0.70;;
37237;SDS011;23129;49.662;8.448;2022-12-29T15:54:16;2.13;;;0.47;;